Time;durP1;ratioP1;P1;durP2;ratioP2;P2;SDS_P1;SDS_P2;PMS_P1;PMS_P2;Temp;Humidity;BMP_temperature;BMP_pressure;BME280_temperature;BME280_humidity;BME280_pressure;Samples;Min_cycle;Max_cycle;Signal;HPM_P1;HPM_P2
2021/03/07 00:01:32;;;;;;;8.93;4.32;;;2.90;91.60;;;;;;6215097;23;20021;-84
2021/03/07 00:03:58;;;;;;;10.57;4.35;;;2.90;91.70;;;;;;6214342;23;20016;-86
2021/03/07 00:06:24;;;;;;;10.77;4.22;;;2.80;91.70;;;;;;6214807;23;20032;-85
2021/03/07 00:08:49;;;;;;;8.27;4.25;;;2.90;91.70;;;;;;6215242;23;20429;-85
2021/03/07 00:11:15;;;;;;;10.02;4.03;;;2.90;92.00;;;;;;6213769;23;20336;-85
2021/03/07 00:13:40;;;;;;;11.98;3.90;;;2.80;91.60;;;;;;6214970;23;20024;-86
2021/03/07 00:16:06;;;;;;;10.10;4.22;;;2.80;91.50;;;;;;6215419;23;20035;-85
2021/03/07 00:18:32;;;;;;;8.32;4.07;;;2.80;91.50;;;;;;6214268;23;20337;-85
2021/03/07 00:20:58;;;;;;;9.73;4.35;;;2.80;91.50;;;;;;6215110;23;20401;-85
2021/03/07 00:23:23;;;;;;;8.30;4.18;;;2.80;91.50;;;;;;6213697;23;20047;-84
2021/03/07 00:25:49;;;;;;;8.40;3.97;;;2.80;91.50;;;;;;6215425;23;20020;-84
2021/03/07 00:28:14;;;;;;;8.15;4.07;;;2.70;91.50;;;;;;6215144;23;20020;-85
2021/03/07 00:30:40;;;;;;;9.80;4.35;;;2.80;91.50;;;;;;6214026;23;20016;-85
2021/03/07 00:33:06;;;;;;;8.07;4.10;;;2.80;91.50;;;;;;6215628;23;20086;-85
2021/03/07 00:35:32;;;;;;;9.25;3.90;;;2.80;91.50;;;;;;6214786;23;20338;-85
2021/03/07 00:37:57;;;;;;;8.10;4.07;;;2.80;91.40;;;;;;6214356;23;20020;-85
2021/03/07 00:40:23;;;;;;;7.60;3.75;;;2.70;91.20;;;;;;6214768;23;20434;-86
2021/03/07 00:42:49;;;;;;;8.57;4.00;;;2.80;91.20;;;;;;6215004;23;20020;-85
2021/03/07 00:45:17;;;;;;;7.13;4.10;;;2.70;91.20;;;;;;6213964;23;20016;-84
2021/03/07 00:47:43;;;;;;;7.25;3.83;;;2.70;91.20;;;;;;6215007;23;20016;-86
2021/03/07 00:50:12;;;;;;;6.72;3.60;;;2.70;91.20;;;;;;6214750;23;20031;-85
2021/03/07 00:52:37;;;;;;;9.23;3.85;;;2.70;91.20;;;;;;6214053;23;20017;-85
2021/03/07 00:55:05;;;;;;;7.40;3.60;;;2.70;91.10;;;;;;6215168;23;20017;-86
2021/03/07 00:57:31;;;;;;;7.47;3.75;;;2.70;91.10;;;;;;6214303;23;20017;-84
2021/03/07 00:59:56;;;;;;;8.32;4.05;;;2.70;91.00;;;;;;6214372;23;20051;-85
2021/03/07 01:02:22;;;;;;;7.38;3.85;;;2.70;91.00;;;;;;6214830;23;20321;-85
2021/03/07 01:04:50;;;;;;;8.32;4.25;;;2.70;91.00;;;;;;6214838;23;20020;-86
2021/03/07 01:07:24;;;;;;;7.50;3.40;;;2.70;91.10;;;;;;6213963;23;20311;-85
2021/03/07 01:09:49;;;;;;;8.35;3.72;;;2.70;91.20;;;;;;6215256;23;20092;-84
2021/03/07 01:12:15;;;;;;;7.18;3.72;;;2.70;91.10;;;;;;6214664;23;20036;-84
2021/03/07 01:14:41;;;;;;;7.32;3.75;;;2.70;91.10;;;;;;6214411;23;20043;-85
2021/03/07 01:17:06;;;;;;;7.38;3.90;;;2.70;91.10;;;;;;6215634;23;20048;-84
2021/03/07 01:19:33;;;;;;;7.45;3.50;;;2.60;91.10;;;;;;6215744;23;20051;-84
2021/03/07 01:22:01;;;;;;;7.70;4.07;;;2.70;91.10;;;;;;6216667;23;20062;-84
2021/03/07 01:24:27;;;;;;;9.43;3.90;;;2.70;91.20;;;;;;6216634;23;20017;-85
2021/03/07 01:26:52;;;;;;;8.27;3.80;;;2.70;91.30;;;;;;6216119;23;20020;-84
2021/03/07 01:29:22;;;;;;;6.93;3.72;;;2.70;91.40;;;;;;6215849;23;20016;-84
2021/03/07 01:31:47;;;;;;;7.28;3.40;;;2.70;91.70;;;;;;6216050;23;20020;-84
2021/03/07 01:34:13;;;;;;;8.05;3.72;;;2.70;91.40;;;;;;6214498;23;20021;-84
2021/03/07 01:36:39;;;;;;;6.90;3.58;;;2.70;91.40;;;;;;6216537;23;20047;-84
2021/03/07 01:39:05;;;;;;;8.60;3.47;;;2.70;91.40;;;;;;6216823;23;20341;-84
2021/03/07 01:41:30;;;;;;;7.97;3.10;;;2.70;91.50;;;;;;6215328;23;20020;-84
2021/03/07 01:43:56;;;;;;;7.20;3.33;;;2.70;91.60;;;;;;6216727;23;20573;-85
2021/03/07 01:46:22;;;;;;;6.53;3.53;;;2.60;91.50;;;;;;6216412;23;20021;-85
2021/03/07 01:48:49;;;;;;;6.53;3.35;;;2.60;91.50;;;;;;6215683;23;20009;-84
2021/03/07 01:51:15;;;;;;;6.45;3.38;;;2.60;91.50;;;;;;6216590;23;20024;-84
2021/03/07 01:53:41;;;;;;;7.45;3.80;;;2.60;91.50;;;;;;6216875;23;20013;-84
2021/03/07 01:56:09;;;;;;;8.25;3.42;;;2.60;91.60;;;;;;6215872;23;20066;-83
2021/03/07 01:58:36;;;;;;;7.30;3.28;;;2.50;91.60;;;;;;6216383;23;20453;-85
2021/03/07 02:01:04;;;;;;;7.82;3.30;;;2.50;91.70;;;;;;6216697;23;20345;-84
2021/03/07 02:03:30;;;;;;;7.68;3.03;;;2.50;91.70;;;;;;6215521;23;20013;-84
2021/03/07 02:05:58;;;;;;;6.15;3.53;;;2.50;91.60;;;;;;6216748;23;20016;-84
2021/03/07 02:08:24;;;;;;;7.90;3.38;;;2.40;91.50;;;;;;6216342;23;20013;-84
2021/03/07 02:10:57;;;;;;;7.38;3.00;;;2.40;91.50;;;;;;6215225;23;20021;-84
2021/03/07 02:13:33;;;;;;;8.38;3.47;;;2.40;91.40;;;;;;6215753;23;20016;-84
2021/03/07 02:16:03;;;;;;;7.15;2.95;;;2.30;91.40;;;;;;6215678;23;20013;-84
2021/03/07 02:18:31;;;;;;;7.05;3.05;;;2.20;91.40;;;;;;6216251;23;20021;-84
2021/03/07 02:21:02;;;;;;;6.60;3.33;;;2.20;91.40;;;;;;6215933;23;20477;-84
2021/03/07 02:23:38;;;;;;;8.68;3.58;;;2.20;91.50;;;;;;6215261;23;20111;-84
2021/03/07 02:26:04;;;;;;;9.15;3.47;;;2.10;91.50;;;;;;6216597;23;20044;-84
2021/03/07 02:28:30;;;;;;;7.30;3.40;;;2.10;91.50;;;;;;6216047;23;20016;-83
2021/03/07 02:30:56;;;;;;;8.80;3.70;;;2.10;91.50;;;;;;6215540;23;20087;-84
2021/03/07 02:33:33;;;;;;;7.20;3.38;;;2.00;91.50;;;;;;6216037;23;20048;-84
2021/03/07 02:36:05;;;;;;;6.15;3.30;;;2.00;91.50;;;;;;6216340;23;20083;-83
2021/03/07 02:38:37;;;;;;;7.78;3.33;;;2.00;91.50;;;;;;6215318;23;20013;-83
2021/03/07 02:41:05;;;;;;;7.73;2.87;;;2.00;91.50;;;;;;6216219;23;20020;-83
2021/03/07 02:43:37;;;;;;;6.57;2.78;;;1.90;91.40;;;;;;6215615;23;20303;-84
2021/03/07 02:46:05;;;;;;;9.48;3.25;;;1.90;91.50;;;;;;6215262;23;20067;-84
2021/03/07 02:48:31;;;;;;;7.50;3.35;;;1.90;91.50;;;;;;6215692;23;20088;-83
2021/03/07 02:51:00;;;;;;;9.60;3.05;;;1.90;91.60;;;;;;6215022;23;20020;-83
2021/03/07 02:53:29;;;;;;;9.77;3.72;;;1.90;91.70;;;;;;6215645;23;20090;-84
2021/03/07 02:56:02;;;;;;;5.93;3.38;;;1.80;91.70;;;;;;6216141;23;20013;-83
2021/03/07 02:58:31;;;;;;;5.93;2.97;;;1.90;91.90;;;;;;6214798;23;20273;-83
2021/03/07 03:01:04;;;;;;;7.18;2.85;;;1.80;91.80;;;;;;6216003;23;20392;-83
2021/03/07 03:03:34;;;;;;;7.85;3.45;;;1.90;91.80;;;;;;6215559;23;20016;-84
2021/03/07 03:06:00;;;;;;;7.13;3.30;;;1.90;91.90;;;;;;6215463;23;20337;-83
2021/03/07 03:08:29;;;;;;;8.23;3.72;;;1.80;91.90;;;;;;6215523;23;20016;-84
2021/03/07 03:10:56;;;;;;;6.35;2.80;;;1.90;92.00;;;;;;6215679;23;20107;-84
2021/03/07 03:13:22;;;;;;;6.72;3.30;;;1.90;91.90;;;;;;6214825;23;20012;-83
2021/03/07 03:15:48;;;;;;;5.53;2.90;;;1.90;91.90;;;;;;6215890;23;20087;-84
2021/03/07 03:18:16;;;;;;;9.70;3.45;;;1.90;91.80;;;;;;6215335;23;20012;-84
2021/03/07 03:20:42;;;;;;;6.85;3.17;;;1.90;91.90;;;;;;6214935;23;20025;-84
2021/03/07 03:23:09;;;;;;;6.97;3.08;;;1.90;91.90;;;;;;6215920;23;20013;-84
2021/03/07 03:25:34;;;;;;;6.20;3.17;;;1.90;91.90;;;;;;6215952;23;20020;-83
2021/03/07 03:28:01;;;;;;;7.80;3.33;;;1.90;91.90;;;;;;6214346;23;20020;-85
2021/03/07 03:30:27;;;;;;;7.97;3.13;;;1.90;91.90;;;;;;6215324;23;20012;-84
2021/03/07 03:33:02;;;;;;;5.85;2.90;;;1.90;91.80;;;;;;6235248;23;20024;-84
2021/03/07 03:35:30;;;;;;;7.43;3.00;;;1.90;91.70;;;;;;6244876;23;20031;-84
2021/03/07 03:37:56;;;;;;;5.15;3.00;;;1.90;91.60;;;;;;6246066;23;20095;-84
2021/03/07 03:40:28;;;;;;;6.15;3.00;;;1.90;91.50;;;;;;6244585;23;20062;-84
2021/03/07 03:42:58;;;;;;;5.95;2.70;;;1.90;91.50;;;;;;6245698;23;20345;-84
2021/03/07 03:45:26;;;;;;;6.43;2.88;;;1.90;91.50;;;;;;6245281;23;20020;-84
2021/03/07 03:47:57;;;;;;;6.72;2.83;;;1.90;91.40;;;;;;6245189;23;20016;-84
2021/03/07 03:50:26;;;;;;;7.03;2.92;;;1.90;91.40;;;;;;6245294;23;20396;-84
2021/03/07 03:52:52;;;;;;;6.40;2.70;;;1.90;91.40;;;;;;6244783;23;20520;-83
2021/03/07 03:55:25;;;;;;;6.53;3.00;;;1.90;91.30;;;;;;6244709;23;20020;-84
2021/03/07 03:57:56;;;;;;;6.18;2.92;;;1.90;91.40;;;;;;6245761;23;20384;-84
2021/03/07 04:00:26;;;;;;;7.22;2.95;;;1.90;91.40;;;;;;6245406;23;20016;-84
2021/03/07 04:02:56;;;;;;;5.40;2.83;;;1.90;91.40;;;;;;6244922;23;20024;-84
2021/03/07 04:05:24;;;;;;;5.93;3.00;;;1.90;91.30;;;;;;6245290;23;20058;-84
2021/03/07 04:07:50;;;;;;;6.68;3.47;;;2.00;91.30;;;;;;6245515;23;20038;-84
2021/03/07 04:10:17;;;;;;;7.03;2.83;;;2.00;91.30;;;;;;6244610;23;20043;-84
2021/03/07 04:12:45;;;;;;;6.45;3.20;;;2.00;91.20;;;;;;6245759;23;20095;-84
2021/03/07 04:15:13;;;;;;;7.03;2.83;;;2.00;91.30;;;;;;6245425;23;20070;-84
2021/03/07 04:17:42;;;;;;;6.28;3.00;;;2.00;91.30;;;;;;6244626;23;20380;-84
2021/03/07 04:20:09;;;;;;;5.72;2.50;;;2.00;91.30;;;;;;6245292;23;20466;-84
2021/03/07 04:22:35;;;;;;;6.03;2.60;;;2.00;91.30;;;;;;6245102;23;20013;-84
2021/03/07 04:25:02;;;;;;;7.45;3.15;;;2.00;91.30;;;;;;6245576;23;20016;-84
2021/03/07 04:27:28;;;;;;;6.43;2.80;;;2.00;91.30;;;;;;6245036;23;20013;-84
2021/03/07 04:29:57;;;;;;;8.05;2.90;;;2.00;91.40;;;;;;6243097;23;20341;-84
2021/03/07 04:32:23;;;;;;;7.30;3.05;;;2.00;91.40;;;;;;6244235;23;20028;-85
2021/03/07 04:34:49;;;;;;;5.45;2.83;;;2.00;91.50;;;;;;6245358;23;20016;-84
2021/03/07 04:37:15;;;;;;;6.63;2.65;;;2.10;91.50;;;;;;6242800;23;20054;-84
2021/03/07 04:39:40;;;;;;;5.80;2.75;;;2.10;91.50;;;;;;6244130;23;20021;-84
2021/03/07 04:42:06;;;;;;;5.95;3.15;;;2.10;91.40;;;;;;6243911;23;20026;-84
2021/03/07 04:44:33;;;;;;;7.18;3.17;;;2.10;91.40;;;;;;6242951;23;20030;-84
2021/03/07 04:46:59;;;;;;;6.15;2.72;;;2.10;91.40;;;;;;6244876;23;20388;-85
2021/03/07 04:49:25;;;;;;;6.20;2.85;;;2.10;91.40;;;;;;6245078;23;20016;-85
2021/03/07 04:51:51;;;;;;;6.70;2.75;;;2.10;91.40;;;;;;6245554;23;20494;-85
2021/03/07 04:54:17;;;;;;;7.57;2.80;;;2.10;91.40;;;;;;6247168;23;20020;-85
2021/03/07 04:56:47;;;;;;;6.13;2.70;;;2.10;91.40;;;;;;6247734;23;20070;-85
2021/03/07 04:59:14;;;;;;;6.45;2.65;;;2.10;91.70;;;;;;6245950;23;20345;-85
2021/03/07 05:01:40;;;;;;;8.70;2.65;;;2.10;91.40;;;;;;6247313;23;20311;-85
2021/03/07 05:04:06;;;;;;;5.15;2.45;;;2.10;91.30;;;;;;6247089;23;20108;-84
2021/03/07 05:06:37;;;;;;;6.47;2.33;;;2.20;91.30;;;;;;6244896;23;20349;-85
2021/03/07 05:09:05;;;;;;;6.68;2.75;;;2.20;91.30;;;;;;6247247;23;20027;-85
2021/03/07 05:11:30;;;;;;;3.55;2.13;;;2.20;91.30;;;;;;6247148;23;20036;-84
2021/03/07 05:13:56;;;;;;;6.22;2.28;;;2.20;91.30;;;;;;6246608;23;20020;-85
2021/03/07 05:16:22;;;;;;;5.80;2.47;;;2.20;91.30;;;;;;6246878;23;20023;-85
2021/03/07 05:18:47;;;;;;;6.25;2.50;;;2.20;91.20;;;;;;6246409;23;20447;-86
2021/03/07 05:21:13;;;;;;;4.82;2.13;;;2.20;91.20;;;;;;6247111;23;20020;-86
2021/03/07 05:23:39;;;;;;;5.65;2.65;;;2.20;91.20;;;;;;6246699;23;20059;-85
2021/03/07 05:26:05;;;;;;;5.30;2.20;;;2.20;91.10;;;;;;6246458;23;20016;-85
2021/03/07 05:28:31;;;;;;;4.70;1.92;;;2.20;91.10;;;;;;6246218;23;20456;-86
2021/03/07 05:30:57;;;;;;;6.03;2.40;;;2.20;91.00;;;;;;6247311;23;20023;-85
2021/03/07 05:33:22;;;;;;;6.13;2.20;;;2.20;91.10;;;;;;6245682;23;20023;-86
2021/03/07 05:35:48;;;;;;;5.35;2.70;;;2.20;91.40;;;;;;6247345;23;20077;-85
2021/03/07 05:38:14;;;;;;;6.70;2.55;;;2.20;91.20;;;;;;6246643;23;20062;-86
2021/03/07 05:40:40;;;;;;;3.72;2.10;;;2.20;91.20;;;;;;6245876;23;20070;-84
2021/03/07 05:43:07;;;;;;;4.65;2.30;;;2.20;91.20;;;;;;6246977;23;20380;-85
2021/03/07 05:45:33;;;;;;;4.90;2.00;;;2.20;91.10;;;;;;6246364;23;20027;-85
2021/03/07 05:47:59;;;;;;;5.60;2.20;;;2.20;91.10;;;;;;6245963;23;20012;-85
2021/03/07 05:50:25;;;;;;;5.13;2.40;;;2.20;91.10;;;;;;6246714;23;20389;-86
2021/03/07 05:52:53;;;;;;;3.95;1.80;;;2.20;91.20;;;;;;6247236;23;20012;-86
2021/03/07 05:55:20;;;;;;;5.15;2.03;;;2.20;91.20;;;;;;6245408;23;20016;-86
2021/03/07 05:57:47;;;;;;;6.15;2.75;;;2.20;91.10;;;;;;6247179;23;20035;-85
2021/03/07 06:00:15;;;;;;;5.30;2.50;;;2.20;91.20;;;;;;6246404;23;20030;-85
2021/03/07 06:02:41;;;;;;;5.55;2.20;;;2.20;91.30;;;;;;6245629;23;20379;-86
2021/03/07 06:05:08;;;;;;;6.10;2.17;;;2.30;91.40;;;;;;6246858;23;20044;-86
2021/03/07 06:07:34;;;;;;;6.43;2.53;;;2.30;91.40;;;;;;6246104;23;20518;-85
2021/03/07 06:10:23;;;;;;;5.90;2.10;;;2.30;91.40;;;;;;6246295;23;20087;-86
2021/03/07 06:13:03;;;;;;;6.97;2.58;;;2.30;91.50;;;;;;6246773;23;20036;-85
2021/03/07 06:15:29;;;;;;;5.40;2.33;;;2.30;91.50;;;;;;6245826;23;20214;-86
2021/03/07 06:17:55;;;;;;;4.00;2.13;;;2.40;91.50;;;;;;6246976;23;20017;-86
2021/03/07 06:20:27;;;;;;;4.43;2.00;;;2.30;91.40;;;;;;6246704;23;20020;-86
2021/03/07 06:22:59;;;;;;;4.75;2.05;;;2.30;91.40;;;;;;6245771;23;20020;-85
2021/03/07 06:25:26;;;;;;;5.35;2.40;;;2.30;91.40;;;;;;6246745;23;20017;-87
2021/03/07 06:28:25;;;;;;;5.25;2.15;;;2.40;91.50;;;;;;6245681;23;20496;-86
2021/03/07 06:30:52;;;;;;;5.07;2.15;;;2.30;91.50;;;;;;6215759;23;20021;-87
2021/03/07 06:33:42;;;;;;;4.47;1.95;;;2.40;91.50;;;;;;6216227;23;20016;-84
2021/03/07 06:36:28;;;;;;;3.70;1.80;;;2.40;91.40;;;;;;6215470;23;20066;-83
2021/03/07 06:39:07;;;;;;;6.50;2.05;;;2.40;91.40;;;;;;6216593;23;20070;-83
2021/03/07 06:41:34;;;;;;;4.25;1.85;;;2.40;91.20;;;;;;6216388;23;20043;-83
2021/03/07 06:44:14;;;;;;;4.32;2.00;;;2.40;91.20;;;;;;6213522;23;20020;-83
2021/03/07 06:46:50;;;;;;;5.57;2.10;;;2.40;91.20;;;;;;6215463;23;20021;-84
2021/03/07 06:49:28;;;;;;;6.70;1.90;;;2.40;91.10;;;;;;6216104;23;20008;-85
2021/03/07 06:52:09;;;;;;;3.03;1.70;;;2.40;91.10;;;;;;6215118;23;20040;-85
2021/03/07 06:54:35;;;;;;;4.68;1.92;;;2.40;91.10;;;;;;6215956;23;20017;-83
2021/03/07 06:57:00;;;;;;;3.65;1.80;;;2.40;91.00;;;;;;6216127;23;20020;-85
2021/03/07 06:59:28;;;;;;;4.78;2.00;;;2.40;91.00;;;;;;6214654;23;20020;-85
2021/03/07 07:01:55;;;;;;;3.65;1.70;;;2.40;91.40;;;;;;6215683;23;20457;-84
2021/03/07 07:04:22;;;;;;;3.58;1.73;;;2.40;91.00;;;;;;6214602;23;20016;-85
2021/03/07 07:07:08;;;;;;;3.72;1.90;;;2.40;91.00;;;;;;6215916;23;20026;-85
2021/03/07 07:09:34;;;;;;;3.28;1.90;;;2.40;91.00;;;;;;6215865;23;20021;-84
2021/03/07 07:12:02;;;;;;;6.15;1.80;;;2.40;91.00;;;;;;6214374;23;20021;-84
2021/03/07 07:14:46;;;;;;;4.85;2.00;;;2.40;91.00;;;;;;6215051;23;20020;-83
2021/03/07 07:17:13;;;;;;;;;;;2.50;91.10;;;;;;6215564;23;20016;-84
2021/03/07 07:19:40;;;;;;;3.13;1.80;;;2.40;90.80;;;;;;6214937;23;19916;-84
2021/03/07 07:22:11;;;;;;;3.13;1.65;;;2.40;91.00;;;;;;6215880;23;20017;-84
2021/03/07 07:24:41;;;;;;;4.97;1.90;;;2.40;91.00;;;;;;6215154;23;20095;-84
2021/03/07 07:27:10;;;;;;;7.70;1.95;;;2.40;91.00;;;;;;6214218;23;20023;-85
2021/03/07 07:29:41;;;;;;;4.53;2.10;;;2.50;91.00;;;;;;6215176;23;20024;-88
2021/03/07 07:32:44;;;;;;;5.95;2.17;;;2.50;91.00;;;;;;6215822;23;20020;-88
2021/03/07 07:35:38;;;;;;;3.95;1.80;;;2.50;90.90;;;;;;6215517;23;20013;-87
2021/03/07 07:38:23;;;;;;;4.57;1.90;;;2.50;91.00;;;;;;6215900;23;20016;-87
2021/03/07 07:40:48;;;;;;;7.75;2.13;;;2.50;90.90;;;;;;6215244;23;20017;-88
2021/03/07 07:43:14;;;;;;;5.13;2.13;;;2.50;90.80;;;;;;6214787;23;20405;-87
2021/03/07 07:46:12;;;;;;;3.80;1.90;;;2.60;90.80;;;;;;6215526;23;20075;-87
2021/03/07 07:48:44;;;;;;;4.25;1.77;;;2.60;90.90;;;;;;6216505;23;20020;-86
2021/03/07 08:02:46;;;;;;;5.43;2.33;;;2.60;90.70;;;;;;6245279;23;20019;-83
2021/03/07 08:05:31;;;;;;;5.63;2.17;;;2.60;90.70;;;;;;6245090;23;20020;-83
2021/03/07 08:08:10;;;;;;;6.68;2.67;;;2.60;90.60;;;;;;6244925;23;20012;-83
2021/03/07 08:11:38;;;;;;;8.88;3.58;;;2.70;90.70;;;;;;6245542;23;20034;-84
2021/03/07 08:14:07;;;;;;;9.07;3.60;;;2.70;90.40;;;;;;6162442;23;20020;-84
2021/03/07 08:16:47;;;;;;;8.15;3.67;;;2.70;90.20;;;;;;6244498;23;20020;-84
2021/03/07 08:19:56;;;;;;;8.05;3.20;;;2.70;90.00;;;;;;6243496;23;20376;-84
2021/03/07 08:23:25;;;;;;;6.10;2.92;;;2.70;89.70;;;;;;6176248;23;20027;-83
2021/03/07 08:25:54;;;;;;;5.30;2.63;;;2.70;89.80;;;;;;6095089;23;20018;-83
2021/03/07 08:28:28;;;;;;;5.57;2.58;;;2.80;89.80;;;;;;6096375;23;20447;-84
2021/03/07 08:31:04;;;;;;;6.88;2.60;;;2.80;89.60;;;;;;6096938;23;20018;-83
2021/03/07 08:33:37;;;;;;;5.43;2.70;;;2.80;89.50;;;;;;6096112;23;20073;-84
2021/03/07 08:36:22;;;;;;;5.75;2.55;;;2.80;89.40;;;;;;6096153;23;20507;-83
2021/03/07 08:39:35;;;;;;;8.52;2.95;;;2.80;89.30;;;;;;6096994;23;20034;-83
2021/03/07 08:42:30;;;;;;;6.00;2.90;;;2.90;89.50;;;;;;6038575;23;20019;-84
2021/03/07 08:45:18;;;;;;;9.13;3.30;;;2.90;89.70;;;;;;6032489;23;20094;-83
2021/03/07 08:47:55;;;;;;;7.68;3.00;;;2.90;89.50;;;;;;6038444;23;20039;-84
2021/03/07 08:50:36;;;;;;;4.82;2.85;;;2.90;89.40;;;;;;6038241;23;20011;-83
2021/03/07 08:53:02;;;;;;;8.38;3.30;;;2.90;89.20;;;;;;6039905;23;20019;-88
2021/03/07 08:55:35;;;;;;;6.68;3.15;;;3.00;89.30;;;;;;6038192;23;20087;-86
2021/03/07 09:06:07;;;;;;;7.93;3.78;;;3.00;89.00;;;;;;6049312;23;20022;-85
2021/03/07 09:08:32;;;;;;;6.97;3.63;;;3.00;88.90;;;;;;6123014;23;20029;-85
2021/03/07 09:11:11;;;;;;;6.82;3.67;;;3.10;88.70;;;;;;6122522;23;20018;-87
2021/03/07 09:13:50;;;;;;;6.88;3.90;;;3.10;88.60;;;;;;6206181;23;20075;-86
2021/03/07 09:16:36;;;;;;;8.82;4.45;;;3.10;88.70;;;;;;6218012;23;20020;-87
2021/03/07 09:19:34;;;;;;;12.85;4.90;;;3.10;88.60;;;;;;6217819;23;20049;-87
2021/03/07 09:22:09;;;;;;;7.68;4.22;;;3.20;88.50;;;;;;6218879;23;20024;-86
2021/03/07 09:24:53;;;;;;;8.57;5.13;;;3.10;88.20;;;;;;6218606;23;20083;-87
2021/03/07 09:27:38;;;;;;;10.27;5.32;;;3.20;88.40;;;;;;6218540;23;20021;-87
2021/03/07 09:30:22;;;;;;;7.45;4.68;;;3.20;88.20;;;;;;6218622;23;20084;-86
2021/03/07 09:32:53;;;;;;;11.88;5.90;;;3.20;88.10;;;;;;6217395;23;20027;-86
2021/03/07 09:35:34;;;;;;;15.73;7.82;;;3.20;88.20;;;;;;6218269;23;20020;-86
2021/03/07 09:38:15;;;;;;;15.80;8.52;;;3.30;88.10;;;;;;6216960;23;20020;-85
2021/03/07 09:40:47;;;;;;;13.55;7.03;;;3.30;88.10;;;;;;6206175;23;20449;-86
2021/03/07 09:43:14;;;;;;;10.13;5.80;;;3.30;87.80;;;;;;6216565;23;20017;-86
2021/03/07 09:45:47;;;;;;;11.65;5.45;;;3.30;87.80;;;;;;6216904;23;20027;-85
2021/03/07 09:48:14;;;;;;;10.38;5.28;;;3.30;87.70;;;;;;6215598;23;20021;-86
2021/03/07 09:50:45;;;;;;;9.27;5.30;;;3.30;87.40;;;;;;6217000;23;20091;-86
2021/03/07 09:53:12;;;;;;;10.35;5.75;;;3.40;87.30;;;;;;6215194;23;20043;-86
2021/03/07 09:56:03;;;;;;;11.57;6.05;;;3.40;87.30;;;;;;6216425;23;20543;-85
2021/03/07 09:58:36;;;;;;;8.30;5.00;;;3.40;86.90;;;;;;6216305;23;20472;-86
2021/03/07 10:01:05;;;;;;;13.18;6.47;;;3.40;86.80;;;;;;6216019;23;20016;-86
2021/03/07 10:03:40;;;;;;;9.60;5.38;;;3.50;87.00;;;;;;6216515;23;20016;-87
2021/03/07 10:06:42;;;;;;;8.23;5.65;;;3.50;86.80;;;;;;6216779;23;20038;-86
2021/03/07 10:09:11;;;;;;;13.77;7.35;;;3.50;86.90;;;;;;6110123;23;20940;-86
2021/03/07 10:11:37;;;;;;;13.77;7.53;;;3.60;86.60;;;;;;6216809;23;20028;-86
2021/03/07 10:14:06;;;;;;;11.45;6.15;;;3.60;86.00;;;;;;6218354;22;20032;-86
2021/03/07 10:16:41;;;;;;;12.13;6.15;;;3.60;85.70;;;;;;6246913;23;20047;-87
2021/03/07 10:19:14;;;;;;;10.00;6.20;;;3.70;85.50;;;;;;6246892;23;20102;-86
2021/03/07 10:21:55;;;;;;;11.52;6.30;;;3.70;85.20;;;;;;6246080;23;20016;-87
2021/03/07 10:24:36;;;;;;;12.60;6.78;;;3.80;85.00;;;;;;6246845;23;20093;-88
2021/03/07 10:27:30;;;;;;;13.95;8.88;;;3.80;84.60;;;;;;6247430;23;20035;-85
2021/03/07 10:30:39;;;;;;;12.15;6.90;;;3.90;84.40;;;;;;6245501;23;20030;-88
2021/03/07 10:37:35;;;;;;;10.77;5.70;;;4.00;84.10;;;;;;6231069;23;20039;-89
2021/03/07 10:40:34;;;;;;;11.73;5.85;;;4.10;83.80;;;;;;6246583;23;20020;-93
2021/03/07 10:43:34;;;;;;;;;;;;;;;;;;;;;
2021/03/07 10:47:35;;;;;;;10.45;6.68;;;4.10;83.00;;;;;;6246345;23;20066;-88
2021/03/07 10:50:32;;;;;;;11.05;6.78;;;4.20;82.10;;;;;;5979461;24;20048;-89
2021/03/07 10:53:04;;;;;;;13.40;7.10;;;4.30;82.40;;;;;;5979759;24;20092;-86
2021/03/07 10:55:35;;;;;;;10.70;7.03;;;4.30;81.80;;;;;;6063424;23;20101;-85
2021/03/07 10:58:04;;;;;;;11.82;8.05;;;4.40;81.10;;;;;;6093482;23;20018;-86
2021/03/07 11:00:45;;;;;;;11.73;7.22;;;4.40;80.80;;;;;;6094102;23;20022;-85
2021/03/07 11:03:11;;;;;;;14.80;8.70;;;4.50;80.30;;;;;;6121287;23;20013;-88
2021/03/07 11:05:39;;;;;;;12.70;7.95;;;4.50;80.90;;;;;;6246155;23;20020;-85
2021/03/07 11:08:11;;;;;;;13.77;8.30;;;4.50;80.80;;;;;;6246720;23;20043;-87
2021/03/07 11:10:39;;;;;;;11.25;7.00;;;4.50;80.50;;;;;;6219885;23;20090;-91
2021/03/07 11:14:04;;;;;;;10.98;7.90;;;4.60;80.30;;;;;;6247150;23;20445;-89
2021/03/07 11:17:13;;;;;;;12.93;8.18;;;4.60;80.10;;;;;;6245214;23;20469;-88
2021/03/07 11:19:54;;;;;;;12.07;7.30;;;4.70;80.20;;;;;;6093591;23;20093;-87
2021/03/07 11:22:32;;;;;;;12.50;8.02;;;4.70;80.20;;;;;;6056943;23;20467;-91
2021/03/07 11:25:45;;;;;;;11.23;7.85;;;4.80;79.80;;;;;;6094740;23;20033;-92
2021/03/07 11:31:47;;;;;;;13.77;7.45;;;4.90;79.50;;;;;;6008628;23;20024;-89
2021/03/07 11:38:04;;;;;;;16.05;10.60;;;5.00;78.60;;;;;;5978413;24;20028;-89
2021/03/07 11:40:35;;;;;;;26.20;14.57;;;5.00;78.70;;;;;;5979716;23;20021;-87
2021/03/07 11:43:32;;;;;;;22.70;12.48;;;5.10;78.30;;;;;;5981960;23;20087;-91
2021/03/07 11:53:36;;;;;;;14.73;9.77;;;5.20;77.60;;;;;;5896507;24;20397;-87
2021/03/07 11:56:20;;;;;;;14.32;9.38;;;5.20;77.80;;;;;;5944512;24;20020;-88
2021/03/07 11:58:46;;;;;;;17.73;10.88;;;5.30;78.00;;;;;;5980305;24;20026;-83
2021/03/07 12:01:11;;;;;;;16.70;10.63;;;5.30;77.70;;;;;;5978789;24;20173;-85
2021/03/07 12:03:37;;;;;;;15.68;10.48;;;5.40;77.50;;;;;;6024669;23;20025;-85
2021/03/07 12:06:03;;;;;;;13.93;9.10;;;5.40;77.10;;;;;;6072550;23;20069;-85
2021/03/07 12:08:40;;;;;;;17.17;10.68;;;5.40;76.90;;;;;;6214149;23;20019;-86
2021/03/07 12:11:06;;;;;;;18.38;11.00;;;5.50;77.00;;;;;;6214699;23;20431;-83
2021/03/07 12:13:32;;;;;;;20.30;11.93;;;5.50;76.70;;;;;;6214375;23;20100;-86
2021/03/07 12:16:04;;;;;;;21.13;13.57;;;5.50;76.40;;;;;;6214296;23;20067;-85
2021/03/07 12:18:30;;;;;;;16.35;9.93;;;5.60;76.20;;;;;;6213746;23;20013;-84
2021/03/07 12:20:56;;;;;;;12.73;8.93;;;5.60;75.90;;;;;;6209979;23;20814;-84
2021/03/07 12:23:21;;;;;;;18.15;10.63;;;5.60;75.20;;;;;;6206112;23;20357;-85
2021/03/07 12:26:14;;;;;;;16.90;9.98;;;5.70;75.20;;;;;;6210466;23;20024;-85
2021/03/07 12:28:50;;;;;;;15.90;10.68;;;5.60;75.10;;;;;;6213348;23;20063;-87
2021/03/07 12:32:21;;;;;;;;;;;;;;;;;;;;;
2021/03/07 12:38:52;;;;;;;16.48;10.95;;;5.80;76.30;;;;;;6234937;23;20078;-89
2021/03/07 12:48:11;;;;;;;17.35;11.45;;;5.80;76.20;;;;;;6238099;23;20387;-83
2021/03/07 12:50:46;;;;;;;18.98;11.55;;;5.80;76.40;;;;;;6245833;23;20016;-90
2021/03/07 12:53:49;;;;;;;16.05;10.73;;;5.80;76.30;;;;;;6246086;23;20050;-88
2021/03/07 13:04:11;;;;;;;19.50;12.07;;;5.80;76.40;;;;;;6246868;23;20455;-93
2021/03/07 13:27:42;;;;;;;19.15;13.05;;;5.70;76.90;;;;;;6212876;23;20115;-85
2021/03/07 13:30:15;;;;;;;18.52;13.10;;;5.70;77.10;;;;;;6215123;23;20087;-86
2021/03/07 13:32:56;;;;;;;17.63;13.20;;;5.70;77.00;;;;;;6212529;23;20016;-86
2021/03/07 13:36:01;;;;;;;23.38;14.85;;;5.70;76.90;;;;;;6214774;23;20441;-85
2021/03/07 14:08:25;;;;;;;26.73;16.20;;;5.70;77.50;;;;;;6180898;23;20036;-85
2021/03/07 14:55:39;;;;;;;33.72;19.73;;;5.70;79.90;;;;;;6042482;23;20440;-87
2021/03/07 15:00:43;;;;;;;35.60;22.17;;;5.80;80.10;;;;;;6213365;22;20035;-87
2021/03/07 16:03:06;;;;;;;27.73;18.63;;;5.60;82.00;;;;;;6224730;23;20030;-93
2021/03/07 16:10:06;;;;;;;30.80;19.38;;;5.60;82.20;;;;;;6214731;23;20152;-88
2021/03/07 16:16:51;;;;;;;31.65;18.50;;;5.60;82.10;;;;;;6152817;23;20685;-87
2021/03/07 17:14:21;;;;;;;33.85;21.15;;;5.30;84.40;;;;;;6227925;22;20024;-86
2021/03/07 18:03:11;;;;;;;32.20;21.10;;;5.20;86.40;;;;;;6246964;23;20087;-85
2021/03/07 18:10:12;;;;;;;;;;;;;;;;;;;;;
2021/03/07 18:13:12;;;;;;;32.80;22.10;;;5.20;87.00;;;;;;6191354;23;20102;-86
2021/03/07 18:15:44;;;;;;;35.10;22.27;;;5.20;86.80;;;;;;6247027;23;20091;-87
2021/03/07 18:32:11;;;;;;;40.22;24.77;;;5.20;87.10;;;;;;6246975;23;20031;-87
2021/03/07 18:34:46;;;;;;;40.95;25.25;;;5.10;87.20;;;;;;6245870;23;20016;-87
2021/03/07 18:37:24;;;;;;;39.30;25.35;;;5.20;87.10;;;;;;6246283;23;20336;-86
2021/03/07 18:39:59;;;;;;;40.53;25.23;;;5.20;87.40;;;;;;6246646;23;20020;-87
2021/03/07 18:42:41;;;;;;;36.80;24.45;;;5.20;87.10;;;;;;6245619;23;20370;-87
2021/03/07 18:45:10;;;;;;;48.45;28.60;;;5.20;87.70;;;;;;6246793;23;20016;-86
2021/03/07 18:47:39;;;;;;;33.95;22.48;;;5.20;87.50;;;;;;6244736;23;20439;-87
2021/03/07 18:57:50;;;;;;;38.08;22.65;;;5.10;87.30;;;;;;6246172;23;20032;-86
2021/03/07 19:07:50;;;;;;;36.42;21.95;;;5.10;87.40;;;;;;6246701;23;20012;-88
2021/03/07 19:28:53;;;;;;;32.78;19.42;;;5.00;87.70;;;;;;6227730;22;20503;-87
2021/03/07 19:32:28;;;;;;;30.55;21.20;;;5.00;87.60;;;;;;6244101;22;20020;-87
2021/03/07 19:35:12;;;;;;;31.50;21.48;;;5.00;87.70;;;;;;6246174;23;20349;-88
2021/03/07 19:37:43;;;;;;;33.42;21.98;;;5.10;87.80;;;;;;6245013;23;20508;-87
2021/03/07 19:40:09;;;;;;;34.58;22.77;;;5.10;88.00;;;;;;6245518;23;20020;-86
2021/03/07 19:42:38;;;;;;;32.28;20.83;;;5.10;88.30;;;;;;6246522;23;20016;-87
2021/03/07 19:45:13;;;;;;;36.20;22.15;;;5.10;88.30;;;;;;6244965;23;20043;-86